createdAt,value
2022-08-24T00:10:22.228Z,126.85
2022-08-24T00:35:27.096Z,125.50
2022-08-24T01:00:33.511Z,123.53
2022-08-24T01:25:38.640Z,127.10
2022-08-24T01:50:44.760Z,123.80
2022-08-24T02:15:49.211Z,133.57
2022-08-24T02:40:53.720Z,133.27
2022-08-24T03:05:58.284Z,134.85
2022-08-24T03:31:02.608Z,132.95
2022-08-24T03:56:07.542Z,137.32
2022-08-24T04:21:17.666Z,138.10
2022-08-24T04:46:21.855Z,137.10
2022-08-24T05:11:26.824Z,144.63
2022-08-24T05:36:33.210Z,144.77
2022-08-24T06:01:41.185Z,144.88
2022-08-24T06:27:05.355Z,142.77
2022-08-24T06:52:11.478Z,144.27
2022-08-24T07:17:15.883Z,139.07
2022-08-24T07:42:29.574Z,140.45
2022-08-24T08:07:37.252Z,150.02
2022-08-24T08:32:41.687Z,142.73
2022-08-24T08:57:52.332Z,138.57
2022-08-24T09:23:04.183Z,140.80
2022-08-24T09:48:20.118Z,141.82
2022-08-24T10:13:29.354Z,138.52
2022-08-24T10:38:53.412Z,152.75
2022-08-24T11:04:00.460Z,172.73
2022-08-24T11:29:05.693Z,144.00
2022-08-24T11:54:14.853Z,142.95
2022-08-24T12:19:25.036Z,162.50
2022-08-24T12:44:32.669Z,156.95
2022-08-24T13:09:38.385Z,138.23
2022-08-24T13:34:44.136Z,141.40
2022-08-24T13:59:59.721Z,139.10
2022-08-24T14:25:14.708Z,135.90
2022-08-24T14:50:21.483Z,138.40
2022-08-24T15:15:31.181Z,138.18
2022-08-24T15:40:38.873Z,137.43
2022-08-24T16:05:51.259Z,137.30
2022-08-24T16:30:56.081Z,136.93
2022-08-24T16:56:00.624Z,141.43
2022-08-24T17:21:05.979Z,135.85
2022-08-24T17:46:11.399Z,138.80
2022-08-24T18:11:16.953Z,134.90
2022-08-24T18:36:21.076Z,134.55
2022-08-24T19:01:25.444Z,135.00
2022-08-24T19:26:30.074Z,136.80
2022-08-24T19:51:34.337Z,138.35
2022-08-24T20:16:42.123Z,131.82
2022-08-24T20:41:46.725Z,132.77
2022-08-24T21:06:51.423Z,131.13
2022-08-24T21:32:13.186Z,128.65
2022-08-24T21:57:17.596Z,128.40
2022-08-24T22:22:21.845Z,127.93
2022-08-24T22:47:26.986Z,128.27
2022-08-24T23:12:33.083Z,128.10
2022-08-24T23:37:37.241Z,128.95
